< < Back
Terminal Aerodrome Forecast


Current Version              Previous Versions:   1  2  3  4  5  6  7  8  9  

Terminal Aerodrome Forecast

318
FTUS42 KGSP 302000 AAA
TAFCLT
TAF AMD
KCLT 302057Z 3021/3118 34003KT P6SM BKN050
     FM302300 VRB03KT P6SM SCT050
     FM310800 00000KT P6SM BKN045=



Latest METAR

050
SAUS70 KWBC 302300 RRA
MTRCLT
METAR KCLT 302252Z 35004KT 10SM FEW050 SCT090 OVC250 27/15 A3004 RMK AO2
SLP166 T02670150


USA.gov is the U.S. government's official web portal to all federal, state and local government web resources and services.